Terminal Aerodrome Forecast
Issued by NWS

Current Version | Previous Version | Graphics & Text | Print | Product List | Glossary On
Versions: 1 2 3 4 5 6 7 8 9 10 11 12 13 14 15 16 17 18
283
FTUS41 KILN 270544
TAFLCK
TAF
KLCK 270544Z 2706/2806 VRB02KT P6SM FEW050 BKN250
     FM271500 20005KT P6SM -SHRA SCT045 OVC120
     FM271800 22007KT 5SM SHRA BR VCTS OVC040CB
     FM272200 20003KT P6SM -SHRA OVC040
     FM280100 VRB03KT P6SM VCSH OVC045
     FM280400 VRB03KT P6SM OVC025=

USA.gov is the U.S. government's official web portal to all federal, state and local government web resources and services.